Time;durP1;ratioP1;P1;durP2;ratioP2;P2;SDS_P1;SDS_P2;PMS_P1;PMS_P2;Temp;Humidity;BMP_temperature;BMP_pressure;BME280_temperature;BME280_humidity;BME280_pressure;Samples;Min_cycle;Max_cycle;Signal;HPM_P1;HPM_P2
2023/03/10 00:01:12;;;;;;;10.30;2.97;;;;;;;6.57;79.18;99213.31;1468868;88;21524;-82
2023/03/10 00:03:39;;;;;;;;;;;;;;;6.55;79.44;99223.14;1479221;88;22234;-82
2023/03/10 00:06:06;;;;;;;4.37;3.00;;;;;;;6.48;79.71;99226.88;1482060;88;20297;-83
2023/03/10 00:08:36;;;;;;;6.63;3.30;;;;;;;6.41;79.39;99223.67;1478405;88;22248;-83
2023/03/10 00:11:02;;;;;;;4.80;3.27;;;;;;;6.36;80.05;99225.92;1476384;88;21508;-82
2023/03/10 00:13:28;;;;;;;6.43;3.87;;;;;;;6.30;81.07;99219.00;1480136;88;21369;-81
2023/03/10 00:15:55;;;;;;;8.20;4.73;;;;;;;6.28;81.07;99219.62;1473859;88;21375;-83
2023/03/10 00:18:21;;;;;;;9.83;4.53;;;;;;;6.26;80.71;99218.94;1470764;88;21332;-83
2023/03/10 00:20:53;;;;;;;7.80;4.13;;;;;;;6.24;82.34;99210.86;1471376;88;21442;-82
2023/03/10 00:23:20;;;;;;;7.87;3.67;;;;;;;6.20;81.19;99203.78;1468076;88;21513;-83
2023/03/10 00:25:56;;;;;;;10.80;5.07;;;;;;;6.18;81.80;99200.95;1495515;86;23070;-83
2023/03/10 00:28:24;;;;;;;7.33;4.30;;;;;;;6.16;82.95;99198.50;1483603;88;21643;-83
2023/03/10 00:31:06;;;;;;;6.47;4.47;;;;;;;6.16;82.88;99203.75;1482492;88;21413;-82
2023/03/10 00:33:34;;;;;;;9.33;4.20;;;;;;;6.16;84.56;99203.75;1476810;88;22488;-82
2023/03/10 00:36:12;;;;;;;10.57;4.73;;;;;;;6.19;84.04;99194.25;1480810;88;21383;-83
2023/03/10 00:38:39;;;;;;;7.53;4.37;;;;;;;6.21;84.93;99193.59;1473515;88;22932;-83
2023/03/10 00:41:10;;;;;;;8.10;4.50;;;;;;;6.23;85.41;99195.59;1470896;88;21494;-82
2023/03/10 00:43:37;;;;;;;7.22;4.40;;;;;;;6.22;86.09;99197.89;1478890;88;22310;-83
2023/03/10 00:46:07;;;;;;;9.37;5.07;;;;;;;6.25;86.03;99184.95;1478504;88;22412;-82
2023/03/10 00:48:33;;;;;;;8.57;4.57;;;;;;;6.29;86.63;99180.53;1486698;86;21573;-83
2023/03/10 00:51:00;;;;;;;5.93;4.83;;;;;;;6.37;87.39;99180.29;1481299;88;21339;-81
2023/03/10 00:53:28;;;;;;;8.07;4.70;;;;;;;6.44;87.30;99183.95;1476657;88;21397;-83
2023/03/10 00:56:09;;;;;;;9.17;5.40;;;;;;;6.49;87.71;99180.38;1485565;88;21376;-82
2023/03/10 00:58:35;;;;;;;9.65;6.00;;;;;;;6.53;86.91;99171.20;1476533;88;21435;-82
2023/03/10 01:01:05;;;;;;;19.50;11.77;;;;;;;6.53;86.91;99162.00;1481153;88;21461;-84
2023/03/10 01:03:32;;;;;;;46.20;24.03;;;;;;;6.54;86.93;99158.42;1477890;88;21494;-83
2023/03/10 01:05:58;;;;;;;39.10;20.63;;;;;;;6.56;86.35;99163.05;1475702;88;21442;-82
2023/03/10 01:08:24;;;;;;;44.83;25.57;;;;;;;6.57;86.24;99151.53;1483294;88;21472;-83
2023/03/10 01:10:51;;;;;;;19.03;7.70;;;;;;;6.55;85.68;99151.67;1474430;88;21486;-83
2023/03/10 01:13:19;;;;;;;22.47;14.67;;;;;;;6.53;85.76;99147.55;1474307;88;21361;-82
2023/03/10 01:15:47;;;;;;;18.70;11.80;;;;;;;6.48;85.43;99148.02;1473974;88;21515;-83
2023/03/10 01:18:15;;;;;;;14.13;10.17;;;;;;;6.44;84.85;99143.21;1487070;88;21464;-85
2023/03/10 01:20:42;;;;;;;12.97;8.70;;;;;;;6.36;85.05;99134.80;1474877;88;22264;-84
2023/03/10 01:23:17;;;;;;;17.83;8.43;;;;;;;6.29;85.75;99135.86;1477496;88;21398;-84
2023/03/10 01:25:43;;;;;;;12.23;6.80;;;;;;;6.25;86.02;99138.47;1474230;88;21502;-84
2023/03/10 01:28:10;;;;;;;9.80;6.13;;;;;;;6.22;85.70;99146.66;1481428;88;21619;-85
2023/03/10 01:30:37;;;;;;;9.43;6.30;;;;;;;6.18;86.01;99146.61;1474781;88;21392;-84
2023/03/10 01:33:05;;;;;;;14.63;8.17;;;;;;;6.13;86.02;99152.82;1477078;88;21376;-84
2023/03/10 01:35:31;;;;;;;19.50;9.83;;;;;;;6.10;85.99;99153.94;1471229;88;21405;-83
2023/03/10 01:37:58;;;;;;;15.57;8.27;;;;;;;6.08;85.86;99154.57;1476215;88;21376;-83
2023/03/10 01:40:25;;;;;;;10.33;6.17;;;;;;;6.08;86.19;99149.32;1475012;88;21725;-84
2023/03/10 01:42:55;;;;;;;14.90;7.03;;;;;;;6.08;86.23;99136.68;1479429;88;21390;-83
2023/03/10 01:45:26;;;;;;;21.50;10.97;;;;;;;6.08;85.83;99137.50;1484218;88;21471;-84
2023/03/10 01:47:53;;;;;;;12.67;7.37;;;;;;;6.05;85.79;99141.74;1462842;88;21391;-84
2023/03/10 01:50:19;;;;;;;11.70;6.17;;;;;;;6.03;85.65;99132.36;1471567;88;22476;-84
2023/03/10 01:52:55;;;;;;;7.20;5.13;;;;;;;6.02;85.19;99132.03;1473448;88;21553;-86
2023/03/10 01:55:23;;;;;;;8.13;4.47;;;;;;;5.98;84.97;99127.54;1484010;88;21586;-82
2023/03/10 01:57:53;;;;;;;5.90;4.28;;;;;;;5.97;85.45;99123.77;1475352;88;21493;-81
2023/03/10 02:00:21;;;;;;;10.73;4.10;;;;;;;5.94;85.61;99122.75;1498960;86;21494;-81
2023/03/10 02:03:11;;;;;;;19.77;10.10;;;;;;;5.93;85.60;99127.62;1470781;88;21675;-81
2023/03/10 02:05:45;;;;;;;15.98;7.97;;;;;;;5.88;86.76;99130.22;1469208;88;21464;-81
2023/03/10 02:08:12;;;;;;;21.40;11.20;;;;;;;5.85;86.03;99134.45;1474228;86;21654;-82
2023/03/10 02:10:38;;;;;;;16.67;9.20;;;;;;;5.78;86.55;99122.91;1470397;88;22307;-82
2023/03/10 02:13:05;;;;;;;13.17;8.07;;;;;;;5.75;85.56;99116.62;1475299;88;21413;-82
2023/03/10 02:15:35;;;;;;;22.00;9.93;;;;;;;5.71;85.79;99113.97;1476389;88;21384;-82
2023/03/10 02:18:05;;;;;;;19.50;8.50;;;;;;;5.66;86.41;99117.02;1475114;88;21546;-82
2023/03/10 02:21:05;;;;;;;13.63;6.50;;;;;;;5.65;86.65;99111.94;1476112;88;21346;-82
2023/03/10 02:23:39;;;;;;;17.53;9.23;;;;;;;5.62;86.80;99116.17;1472325;88;21353;-82
2023/03/10 02:26:17;;;;;;;15.87;9.73;;;;;;;5.64;86.46;99118.17;1472282;88;22374;-82
2023/03/10 02:28:46;;;;;;;11.03;7.37;;;;;;;5.59;86.25;99116.47;1480582;88;21531;-82
2023/03/10 02:31:13;;;;;;;11.20;6.27;;;;;;;5.55;86.33;99125.59;1474224;88;21413;-81
2023/03/10 02:33:44;;;;;;;10.77;4.90;;;;;;;5.42;87.33;99125.46;1473918;88;21457;-82
2023/03/10 02:36:20;;;;;;;9.90;5.90;;;;;;;5.41;86.84;99127.76;1469979;88;21442;-82
2023/03/10 02:38:47;;;;;;;16.73;6.13;;;;;;;5.41;87.36;99133.00;1475283;88;21280;-82
2023/03/10 02:41:24;;;;;;;16.87;8.23;;;;;;;5.39;88.14;99128.88;1483146;88;22404;-81
2023/03/10 02:43:52;;;;;;;27.30;13.90;;;;;;;5.36;87.62;99130.48;1475727;88;21420;-83
2023/03/10 02:46:19;;;;;;;10.17;7.10;;;;;;;5.27;88.70;99130.86;1481660;88;21581;-84
2023/03/10 02:48:46;;;;;;;8.47;5.70;;;;;;;5.27;88.70;99130.86;1487755;88;21605;-84
2023/03/10 02:51:17;;;;;;;14.20;6.57;;;;;;;5.22;89.30;99122.59;1474413;88;22100;-84
2023/03/10 02:53:43;;;;;;;;;;;;;;;5.22;89.30;99122.59;1474844;88;21435;-85
2023/03/10 02:56:09;;;;;;;9.37;5.97;;;;;;;5.21;89.88;99128.83;1480795;88;20454;-85
2023/03/10 02:58:36;;;;;;;9.33;5.90;;;;;;;5.19;88.30;99138.63;1485104;88;21444;-84
2023/03/10 03:01:04;;;;;;;8.57;6.40;;;;;;;5.16;89.04;99139.73;1487760;88;21532;-83
2023/03/10 03:03:30;;;;;;;8.43;5.80;;;;;;;5.13;89.77;99141.83;1505491;86;21525;-85
2023/03/10 03:05:58;;;;;;;10.97;6.47;;;;;;;5.11;89.52;99146.38;1504772;86;21391;-85
2023/03/10 03:08:25;;;;;;;14.07;6.43;;;;;;;5.07;89.40;99141.09;1482118;88;21465;-85
2023/03/10 03:10:52;;;;;;;23.57;6.07;;;;;;;5.07;88.88;99150.28;1474751;88;22448;-85
2023/03/10 03:13:19;;;;;;;10.50;5.53;;;;;;;5.07;88.88;99150.28;1476779;88;21354;-85
2023/03/10 03:15:47;;;;;;;10.70;6.00;;;;;;;5.10;88.82;99148.67;1501137;86;21546;-84
2023/03/10 03:18:13;;;;;;;9.77;6.73;;;;;;;5.07;88.42;99151.09;1480041;88;21346;-84
2023/03/10 03:20:40;;;;;;;13.90;8.20;;;;;;;5.06;87.88;99148.61;1473425;88;22278;-84
2023/03/10 03:23:07;;;;;;;13.10;7.10;;;;;;;5.04;87.53;99151.39;1477778;88;22156;-84
2023/03/10 03:25:37;;;;;;;10.37;6.47;;;;;;;5.03;87.14;99145.78;1475162;88;22082;-86
2023/03/10 03:28:06;;;;;;;11.60;8.38;;;;;;;5.03;86.87;99135.30;1483220;88;21501;-86
2023/03/10 03:30:33;;;;;;;9.07;6.40;;;;;;;5.02;86.56;99136.77;1479871;88;21435;-86
2023/03/10 03:33:02;;;;;;;14.87;7.23;;;;;;;4.98;86.50;99133.12;1487150;88;23024;-83
2023/03/10 03:35:33;;;;;;;13.33;7.40;;;;;;;4.94;86.33;99134.84;1476517;88;21439;-84
2023/03/10 03:37:59;;;;;;;13.60;8.15;;;;;;;4.87;86.38;99131.98;1478981;88;22934;-84
2023/03/10 03:40:29;;;;;;;14.07;7.23;;;;;;;4.84;86.36;99128.82;1476966;88;21427;-85
2023/03/10 03:42:55;;;;;;;13.57;8.20;;;;;;;4.79;86.43;99131.86;1472396;88;22089;-85
2023/03/10 03:45:25;;;;;;;19.50;7.77;;;;;;;4.75;86.73;99128.70;1475278;88;22062;-84
2023/03/10 03:47:51;;;;;;;17.27;8.17;;;;;;;4.74;87.84;99135.38;1477804;88;21995;-84
2023/03/10 03:50:20;;;;;;;15.17;7.57;;;;;;;4.71;88.13;99138.29;1478380;88;22416;-84
2023/03/10 03:52:47;;;;;;;18.97;9.67;;;;;;;4.69;88.31;99140.22;1475871;88;23164;-83
2023/03/10 03:55:16;;;;;;;18.00;8.93;;;;;;;4.66;88.49;99132.64;1477554;88;22040;-84
2023/03/10 03:57:44;;;;;;;15.67;10.03;;;;;;;4.63;88.31;99121.12;1490806;86;22298;-85
2023/03/10 04:00:18;;;;;;;15.50;9.97;;;;;;;4.58;88.78;99122.06;1478831;88;23038;-84
2023/03/10 04:02:44;;;;;;;14.83;10.20;;;;;;;4.55;89.11;99131.03;1484873;88;22197;-84
2023/03/10 04:05:11;;;;;;;15.43;9.30;;;;;;;4.50;90.52;99120.95;1471926;88;22092;-84
2023/03/10 04:07:42;;;;;;;13.50;9.47;;;;;;;4.48;90.30;99110.27;1485116;88;22082;-84
2023/03/10 04:10:12;;;;;;;14.25;10.20;;;;;;;4.47;90.37;99107.31;1478832;88;22297;-84
2023/03/10 04:12:39;;;;;;;14.43;9.63;;;;;;;4.47;90.17;99104.21;1478319;88;21435;-83
2023/03/10 04:15:07;;;;;;;15.97;10.17;;;;;;;4.46;90.97;99105.19;1467928;88;21340;-85
2023/03/10 04:17:34;;;;;;;20.90;11.67;;;;;;;4.44;91.46;99107.11;1464417;88;22174;-83
2023/03/10 04:20:00;;;;;;;18.83;12.10;;;;;;;4.40;91.41;99102.28;1481793;88;22116;-83
2023/03/10 04:22:27;;;;;;;17.27;11.17;;;;;;;4.35;91.33;99094.86;1480743;88;22251;-82
2023/03/10 04:24:53;;;;;;;17.80;11.20;;;;;;;4.32;93.38;99111.34;1477308;88;22921;-83
2023/03/10 04:27:20;;;;;;;15.87;9.87;;;;;;;4.29;94.44;99104.59;1468427;88;22124;-82
2023/03/10 04:29:47;;;;;;;19.30;10.87;;;;;;;4.30;93.37;99102.30;1483107;88;22100;-82
2023/03/10 04:32:13;;;;;;;18.97;11.73;;;;;;;4.27;95.32;99097.35;1479289;88;22087;-83
2023/03/10 04:34:39;;;;;;;19.50;11.90;;;;;;;4.27;94.97;99094.24;1478671;88;22138;-83
2023/03/10 04:37:05;;;;;;;20.97;12.93;;;;;;;4.28;96.57;99096.38;1475740;88;22124;-83
2023/03/10 04:39:32;;;;;;;18.03;12.17;;;;;;;4.27;96.93;99089.49;1480003;88;22059;-83
2023/03/10 04:41:58;;;;;;;25.77;13.63;;;;;;;4.28;96.85;99085.89;1480019;88;22282;-83
2023/03/10 04:44:26;;;;;;;18.27;10.83;;;;;;;4.27;98.10;99082.95;1472382;88;22283;-83
2023/03/10 04:46:52;;;;;;;19.00;12.97;;;;;;;4.29;97.88;99084.95;1479119;88;22198;-82
2023/03/10 04:49:18;;;;;;;19.37;11.63;;;;;;;4.30;98.26;99087.91;1474868;88;22990;-81
2023/03/10 04:51:44;;;;;;;13.93;11.47;;;;;;;4.34;98.16;99089.75;1471051;88;22190;-81
2023/03/10 04:54:11;;;;;;;22.33;14.10;;;;;;;4.36;98.47;99088.64;1476798;88;22217;-80
2023/03/10 04:56:37;;;;;;;20.93;12.97;;;;;;;4.36;98.59;99088.64;1477116;88;22982;-82
2023/03/10 04:59:03;;;;;;;26.90;14.03;;;;;;;4.35;100.00;99092.24;1478928;88;22242;-82
2023/03/10 05:01:31;;;;;;;20.30;14.93;;;;;;;4.38;97.97;99086.72;1476889;88;22562;-79
2023/03/10 05:04:00;;;;;;;23.67;12.93;;;;;;;4.39;99.02;99084.92;1469048;88;23101;-81
2023/03/10 05:06:28;;;;;;;14.50;11.00;;;;;;;4.41;98.12;99079.89;1476848;88;22145;-81
2023/03/10 05:08:54;;;;;;;17.17;12.70;;;;;;;4.43;98.97;99077.97;1477366;88;22203;-81
2023/03/10 05:11:20;;;;;;;18.40;12.47;;;;;;;4.47;98.83;99079.81;1476217;88;22102;-80
2023/03/10 05:13:47;;;;;;;18.17;12.63;;;;;;;4.49;99.35;99083.94;1480624;88;22086;-82
2023/03/10 05:16:18;;;;;;;18.67;11.47;;;;;;;4.52;100.00;99082.34;1471054;88;22042;-83
2023/03/10 05:18:44;;;;;;;27.73;13.68;;;;;;;4.56;100.00;99077.64;1477578;88;22087;-82
2023/03/10 05:21:11;;;;;;;15.07;9.90;;;;;;;4.60;99.88;99082.11;1483762;88;22380;-82
2023/03/10 05:23:37;;;;;;;17.93;11.43;;;;;;;4.63;100.00;99081.36;1480995;88;22076;-82
2023/03/10 05:26:06;;;;;;;16.33;10.70;;;;;;;4.69;99.84;99079.94;1473720;88;22048;-82
2023/03/10 05:28:32;;;;;;;20.90;10.80;;;;;;;4.76;100.00;99077.10;1479351;88;22244;-82
2023/03/10 05:30:59;;;;;;;17.40;10.43;;;;;;;4.85;100.00;99082.78;1474768;88;22989;-83
2023/03/10 05:33:27;;;;;;;16.93;11.43;;;;;;;4.92;100.00;99081.72;1481065;88;22115;-81
2023/03/10 05:35:53;;;;;;;16.63;12.23;;;;;;;5.01;100.00;99075.62;1478026;88;22277;-82
2023/03/10 05:38:19;;;;;;;23.53;14.90;;;;;;;5.01;100.00;99075.62;1469982;88;22014;-83
2023/03/10 05:40:45;;;;;;;16.83;12.23;;;;;;;5.15;100.00;99092.66;1477442;88;22176;-82
2023/03/10 05:43:12;;;;;;;20.53;13.53;;;;;;;5.24;100.00;99094.92;1479318;88;21501;-82
2023/03/10 05:45:38;;;;;;;18.07;12.80;;;;;;;5.35;100.00;99086.83;1476518;88;21991;-82
2023/03/10 05:48:05;;;;;;;17.17;11.37;;;;;;;5.49;100.00;99092.06;1477751;88;21472;-81
2023/03/10 05:54:32;;;;;;;18.33;10.60;;;;;;;5.75;100.00;99075.92;1477847;88;21362;-82
2023/03/10 05:56:58;;;;;;;17.57;11.73;;;;;;;5.97;100.00;99069.93;1477832;88;22152;-81
2023/03/10 05:59:25;;;;;;;14.80;10.63;;;;;;;6.06;100.00;99066.39;1484875;88;21450;-79
2023/03/10 06:01:51;;;;;;;18.30;9.90;;;;;;;6.18;100.00;99065.16;1479005;88;21375;-84
2023/03/10 06:04:18;;;;;;;13.97;9.77;;;;;;;6.28;100.00;99064.59;1474230;88;21512;-87
2023/03/10 06:06:44;;;;;;;20.80;11.90;;;;;;;6.41;100.00;99068.61;1481200;88;21420;-85
2023/03/10 06:09:10;;;;;;;14.03;11.07;;;;;;;6.53;100.00;99064.74;1470261;88;21515;-86
2023/03/10 06:11:37;;;;;;;12.80;10.27;;;;;;;6.66;100.00;99061.22;1478335;88;21391;-87
2023/03/10 06:14:03;;;;;;;15.80;10.73;;;;;;;6.81;100.00;99060.14;1475351;88;21464;-85
2023/03/10 06:16:29;;;;;;;14.23;9.50;;;;;;;6.94;100.00;99063.67;1487374;88;21516;-84
2023/03/10 06:18:56;;;;;;;14.00;9.67;;;;;;;7.09;100.00;99060.77;1479242;88;22329;-85
2023/03/10 06:21:28;;;;;;;14.70;9.17;;;;;;;7.22;100.00;99065.11;1468752;88;21806;-83
2023/03/10 06:23:55;;;;;;;11.67;9.77;;;;;;;7.36;100.00;99062.83;1483667;88;21412;-85
2023/03/10 06:26:21;;;;;;;12.77;10.20;;;;;;;7.47;100.00;99065.16;1482817;88;21362;-82
2023/03/10 06:28:48;;;;;;;11.50;8.27;;;;;;;7.60;100.00;99062.90;1478889;88;21565;-83
2023/03/10 06:31:21;;;;;;;18.63;9.30;;;;;;;7.72;100.00;99053.38;1479686;88;21442;-84
2023/03/10 06:33:57;;;;;;;14.60;8.33;;;;;;;7.85;100.00;99055.02;1502680;86;22390;-86
2023/03/10 06:36:19;;;;;;;12.83;8.17;;;;;;;7.98;100.00;99054.55;1474088;86;22344;-85
2023/03/10 06:38:46;;;;;;;14.07;7.93;;;;;;;8.10;100.00;99054.03;1479584;88;22043;-86
2023/03/10 06:41:12;;;;;;;14.83;9.77;;;;;;;8.24;100.00;99054.38;1478786;88;21376;-86
2023/03/10 06:43:39;;;;;;;14.50;8.73;;;;;;;8.40;100.00;99054.39;1477253;88;21583;-86
2023/03/10 06:46:16;;;;;;;13.77;9.47;;;;;;;8.54;99.99;99056.82;1478004;88;22226;-84
2023/03/10 06:48:42;;;;;;;11.40;8.53;;;;;;;8.66;99.41;99053.33;1477295;88;21494;-85
2023/03/10 06:51:14;;;;;;;16.33;9.37;;;;;;;8.79;98.74;99047.05;1474044;88;21545;-85
2023/03/10 06:53:40;;;;;;;8.97;7.13;;;;;;;8.91;98.37;99049.63;1475778;88;21545;-83
2023/03/10 06:56:16;;;;;;;12.67;8.77;;;;;;;9.08;97.86;99046.94;1482395;88;21309;-85
2023/03/10 06:58:44;;;;;;;13.77;8.00;;;;;;;9.20;97.08;99050.84;1478679;88;21361;-85
2023/03/10 07:01:28;;;;;;;14.00;9.00;;;;;;;9.34;96.44;99049.28;1480762;88;22316;-84
2023/03/10 07:03:55;;;;;;;12.40;8.33;;;;;;;9.48;95.83;99051.19;1475962;88;21507;-85
2023/03/10 07:06:23;;;;;;;15.40;8.43;;;;;;;9.60;94.83;99041.05;1471260;88;21443;-84
2023/03/10 07:08:50;;;;;;;9.60;7.40;;;;;;;9.71;94.56;99041.97;1479513;88;21406;-85
2023/03/10 07:11:17;;;;;;;9.90;7.13;;;;;;;9.82;93.78;99038.09;1480150;88;22474;-84
2023/03/10 07:13:43;;;;;;;9.33;7.10;;;;;;;9.92;92.97;99040.80;1480408;88;21412;-83
2023/03/10 07:16:09;;;;;;;17.27;8.60;;;;;;;10.07;92.72;99033.42;1476846;88;22034;-83
2023/03/10 07:18:35;;;;;;;12.43;7.33;;;;;;;10.19;92.08;99032.52;1477190;88;21632;-83
2023/03/10 07:21:09;;;;;;;10.00;7.00;;;;;;;10.30;91.50;99032.94;1481212;88;21406;-83
2023/03/10 07:23:36;;;;;;;15.67;6.83;;;;;;;10.43;90.37;99032.81;1473005;86;22463;-87
2023/03/10 07:26:06;;;;;;;10.77;7.47;;;;;;;10.59;90.92;99026.86;1478287;88;21346;-87
2023/03/10 07:28:31;;;;;;;9.27;6.97;;;;;;;10.74;89.25;99026.86;1474099;86;21547;-82
2023/03/10 07:30:59;;;;;;;11.07;7.03;;;;;;;10.97;90.42;99022.78;1476095;88;21552;-84
2023/03/10 07:33:26;;;;;;;12.27;7.30;;;;;;;11.15;88.02;99025.53;1497170;86;21441;-81
2023/03/10 07:35:52;;;;;;;8.37;6.30;;;;;;;11.27;86.44;99016.09;1486031;88;21450;-84
2023/03/10 07:38:18;;;;;;;9.63;6.03;;;;;;;11.46;86.26;99017.34;1479156;88;21509;-85
2023/03/10 07:40:44;;;;;;;11.07;7.23;;;;;;;11.61;85.13;99015.45;1478602;88;21427;-84
2023/03/10 07:43:11;;;;;;;11.33;7.37;;;;;;;11.65;81.85;99017.21;1480943;88;21449;-83
2023/03/10 07:45:37;;;;;;;7.57;6.63;;;;;;;11.66;82.00;99019.69;1469211;88;21420;-82
2023/03/10 07:48:04;;;;;;;10.40;5.90;;;;;;;11.67;81.49;99016.53;1480471;88;21450;-82
2023/03/10 07:50:31;;;;;;;8.20;5.87;;;;;;;11.86;81.84;99011.14;1480723;88;22492;-82
2023/03/10 07:52:57;;;;;;;9.40;6.63;;;;;;;12.00;81.11;99008.92;1479516;88;21428;-84
2023/03/10 07:55:23;;;;;;;9.47;6.17;;;;;;;12.22;79.16;99006.22;1474581;88;22323;-83
2023/03/10 07:57:49;;;;;;;11.77;6.97;;;;;;;12.30;79.04;99008.73;1480849;88;21361;-84
2023/03/10 08:00:17;;;;;;;10.37;6.70;;;;;;;12.38;77.83;99007.27;1497895;86;21332;-84
2023/03/10 08:02:43;;;;;;;9.83;7.13;;;;;;;12.46;77.81;98999.16;1473890;88;21413;-84
2023/03/10 08:05:11;;;;;;;9.07;5.90;;;;;;;12.59;77.83;98994.42;1483183;88;21457;-85
2023/03/10 08:07:37;;;;;;;7.27;4.93;;;;;;;12.70;76.32;98993.06;1468141;88;22205;-85
2023/03/10 08:10:05;;;;;;;6.97;5.50;;;;;;;12.82;76.18;98988.83;1476417;88;21496;-84
2023/03/10 08:12:31;;;;;;;9.60;6.23;;;;;;;12.85;74.68;98985.27;1476510;88;21309;-88
2023/03/10 08:14:57;;;;;;;7.30;5.47;;;;;;;12.92;73.52;98977.83;1472810;88;21399;-85
2023/03/10 08:17:29;;;;;;;13.93;5.40;;;;;;;13.06;74.10;98978.20;1472316;88;21450;-84
2023/03/10 08:19:51;;;;;;;9.40;4.63;;;;;;;13.11;73.65;98974.44;1482468;86;22455;-85
2023/03/10 08:22:18;;;;;;;9.93;5.23;;;;;;;13.25;73.87;98970.84;1475253;88;21398;-85
2023/03/10 08:24:44;;;;;;;10.53;4.90;;;;;;;13.39;72.86;98975.68;1499652;86;21449;-84
2023/03/10 08:27:10;;;;;;;8.70;5.33;;;;;;;13.57;72.50;98974.28;1477821;88;21465;-84
2023/03/10 08:29:36;;;;;;;7.10;4.77;;;;;;;13.61;70.14;98974.17;1476205;88;21369;-85
2023/03/10 08:32:03;;;;;;;10.17;5.47;;;;;;;13.64;70.69;98973.80;1481172;88;21434;-84
2023/03/10 08:34:32;;;;;;;10.83;4.77;;;;;;;13.75;70.13;98977.16;1481273;88;21952;-83
2023/03/10 08:36:59;;;;;;;9.73;5.53;;;;;;;13.81;69.62;98976.37;1478711;88;21939;-85
2023/03/10 08:39:27;;;;;;;9.33;4.50;;;;;;;13.90;69.05;98967.67;1500764;86;21413;-85
2023/03/10 08:41:54;;;;;;;17.53;10.90;;;;;;;14.05;69.21;98968.80;1458971;88;21457;-86
2023/03/10 08:44:21;;;;;;;9.73;6.23;;;;;;;14.23;67.22;98957.00;1476736;88;21611;-84
2023/03/10 08:46:48;;;;;;;10.63;6.03;;;;;;;14.37;66.68;98957.80;1475625;88;21397;-84
2023/03/10 08:49:18;;;;;;;7.33;4.37;;;;;;;14.62;67.62;98950.80;1479457;88;21575;-83
2023/03/10 08:51:44;;;;;;;9.43;5.20;;;;;;;14.81;63.85;98957.08;1478127;88;21516;-84
2023/03/10 08:54:13;;;;;;;9.77;4.97;;;;;;;14.83;64.55;98958.20;1482694;88;22247;-85
2023/03/10 08:56:39;;;;;;;7.30;4.77;;;;;;;14.75;64.28;98955.77;1473623;88;22218;-85
2023/03/10 08:59:06;;;;;;;6.60;4.53;;;;;;;14.69;64.23;98956.62;1468653;88;21398;-84
2023/03/10 09:01:35;;;;;;;7.47;5.00;;;;;;;14.74;65.02;98966.95;1474857;88;21561;-84
2023/03/10 09:04:04;;;;;;;5.90;4.37;;;;;;;14.79;64.98;98948.50;1480833;88;21479;-84
2023/03/10 09:06:31;;;;;;;7.57;5.00;;;;;;;14.83;63.64;98941.70;1467958;88;22433;-83
2023/03/10 09:08:58;;;;;;;8.13;4.70;;;;;;;14.81;64.22;98938.42;1486959;88;21457;-84
2023/03/10 09:11:33;;;;;;;11.67;3.90;;;;;;;14.87;63.81;98946.94;1477281;88;21634;-85
2023/03/10 09:14:01;;;;;;;16.27;5.00;;;;;;;15.02;63.00;98943.99;1476612;88;22350;-84
2023/03/10 09:16:28;;;;;;;7.33;4.47;;;;;;;15.10;62.94;98941.58;1475779;88;21509;-86
2023/03/10 09:18:56;;;;;;;10.73;4.93;;;;;;;15.17;62.21;98941.56;1473215;88;22891;-85
2023/03/10 09:21:23;;;;;;;11.23;3.80;;;;;;;15.16;61.84;98935.39;1500024;86;21575;-85
2023/03/10 09:23:51;;;;;;;8.93;4.50;;;;;;;15.14;62.29;98934.81;1480967;88;21450;-85
2023/03/10 09:26:19;;;;;;;9.37;5.07;;;;;;;15.22;62.03;98929.23;1479432;88;21495;-85
2023/03/10 09:28:48;;;;;;;7.50;4.50;;;;;;;15.31;61.88;98923.94;1478294;88;22330;-85
2023/03/10 09:31:19;;;;;;;7.87;3.63;;;;;;;15.48;61.36;98921.58;1475422;86;22300;-86
2023/03/10 09:33:45;;;;;;;6.50;3.30;;;;;;;15.65;58.84;98915.69;1477256;86;21443;-85
2023/03/10 09:36:11;;;;;;;6.07;3.27;;;;;;;15.77;59.82;98922.82;1476209;88;21524;-85
2023/03/10 09:38:39;;;;;;;10.30;4.53;;;;;;;15.99;59.29;98917.08;1478712;88;22383;-84
2023/03/10 09:41:20;;;;;;;6.37;3.57;;;;;;;16.00;57.93;98909.39;1477931;88;21309;-85
2023/03/10 09:43:56;;;;;;;7.47;3.43;;;;;;;16.16;57.62;98910.14;1473772;88;21546;-84
2023/03/10 09:46:27;;;;;;;4.47;3.10;;;;;;;16.14;57.66;98908.23;1439987;88;21442;-84
2023/03/10 09:49:03;;;;;;;6.80;3.13;;;;;;;16.09;56.97;98910.73;1465421;88;21428;-85
2023/03/10 09:51:30;;;;;;;8.47;2.80;;;;;;;16.21;57.73;98908.16;1482779;88;21604;-83
2023/03/10 09:54:16;;;;;;;7.90;3.27;;;;;;;16.20;56.99;98888.66;1502185;86;22777;-85
2023/03/10 09:56:42;;;;;;;5.20;3.03;;;;;;;16.28;57.42;98885.38;1467940;88;21516;-85
2023/03/10 09:59:40;;;;;;;5.70;2.53;;;;;;;16.62;56.81;98888.78;1479651;88;21302;-85
2023/03/10 10:02:34;;;;;;;5.03;3.37;;;;;;;16.78;56.04;98891.93;1477769;88;21449;-84
2023/03/10 10:05:05;;;;;;;7.87;3.13;;;;;;;16.47;55.90;98879.82;1472084;86;21457;-86
2023/03/10 10:07:45;;;;;;;4.20;3.13;;;;;;;16.22;56.64;98867.88;1477111;88;21604;-84
2023/03/10 10:10:26;;;;;;;10.63;3.40;;;;;;;16.16;57.19;98863.42;1472841;88;22433;-86
2023/03/10 10:12:53;;;;;;;8.05;3.02;;;;;;;16.10;57.75;98860.31;1473803;88;21528;-84
2023/03/10 10:15:24;;;;;;;8.70;2.83;;;;;;;16.26;56.71;98864.79;1480503;88;21436;-86
2023/03/10 10:18:16;;;;;;;7.23;2.80;;;;;;;16.14;56.40;98864.69;1479339;88;21368;-86
2023/03/10 10:20:57;;;;;;;14.90;3.33;;;;;;;15.96;56.53;98856.96;1475724;88;22234;-85
2023/03/10 10:23:50;;;;;;;6.77;2.90;;;;;;;15.85;57.54;98860.88;1478678;86;21531;-86
2023/03/10 10:26:23;;;;;;;6.43;2.47;;;;;;;15.57;59.01;98863.47;1484866;88;21443;-81
2023/03/10 10:29:00;;;;;;;4.77;2.37;;;;;;;15.15;64.28;98859.16;1477181;88;21346;-82
2023/03/10 10:31:30;;;;;;;3.40;2.00;;;;;;;14.77;64.87;98860.00;1482403;88;21442;-79
2023/03/10 10:34:00;;;;;;;5.97;3.12;;;;;;;14.47;66.80;98853.02;1477657;88;21332;-86
2023/03/10 10:36:33;;;;;;;5.83;2.70;;;;;;;14.23;69.04;98845.23;1475117;88;22323;-87
2023/03/10 10:39:02;;;;;;;6.90;2.67;;;;;;;14.18;68.89;98851.70;1479403;88;21450;-86
2023/03/10 10:41:33;;;;;;;4.23;2.80;;;;;;;14.15;69.37;98838.81;1479882;88;21961;-85
2023/03/10 10:44:10;;;;;;;5.83;2.83;;;;;;;14.23;69.63;98832.75;1479320;88;21287;-86
2023/03/10 10:46:37;;;;;;;5.87;3.00;;;;;;;14.67;70.31;98822.34;1479818;88;21560;-84
2023/03/10 10:49:25;;;;;;;5.77;3.20;;;;;;;15.10;68.20;98824.34;1475037;88;21549;-86
2023/03/10 10:52:04;;;;;;;8.37;4.43;;;;;;;15.23;65.94;98820.26;1493071;86;21464;-85
2023/03/10 10:54:42;;;;;;;5.77;3.13;;;;;;;15.35;65.23;98803.04;1480360;88;21369;-85
2023/03/10 10:57:25;;;;;;;8.23;3.10;;;;;;;15.48;65.60;98794.13;1477338;88;21546;-85
2023/03/10 10:59:52;;;;;;;6.70;3.83;;;;;;;15.62;65.26;98788.94;1476954;88;21435;-85
2023/03/10 11:02:33;;;;;;;11.87;3.67;;;;;;;15.96;63.56;98796.13;1483230;88;21458;-86
2023/03/10 11:05:22;;;;;;;4.77;3.40;;;;;;;16.41;60.99;98779.78;1476399;88;22249;-84
2023/03/10 11:07:49;;;;;;;7.20;3.73;;;;;;;16.73;60.55;98775.55;1480864;86;21339;-85
2023/03/10 11:10:20;;;;;;;5.33;2.80;;;;;;;16.83;59.47;98773.99;1473871;88;21361;-81
2023/03/10 11:12:49;;;;;;;;;;;;;;;16.83;56.85;98781.17;1473815;88;22411;-87
2023/03/10 11:15:24;;;;;;;6.70;2.57;;;;;;;16.90;56.96;98755.98;1475671;88;20297;-85
2023/03/10 11:18:17;;;;;;;5.80;2.70;;;;;;;17.17;57.36;98753.41;1471969;88;22594;-85
2023/03/10 11:21:12;;;;;;;11.47;3.00;;;;;;;17.36;56.99;98741.57;1463636;88;21413;-83
2023/03/10 11:23:59;;;;;;;4.53;3.00;;;;;;;17.53;56.57;98739.82;1480426;88;21527;-86
2023/03/10 11:26:50;;;;;;;6.80;2.45;;;;;;;17.45;55.36;98732.14;1476959;88;22352;-83
2023/03/10 11:29:42;;;;;;;3.47;3.17;;;;;;;17.50;53.75;98718.08;1448279;88;21619;-82
2023/03/10 11:32:47;;;;;;;6.40;2.20;;;;;;;17.33;53.01;98715.30;1480109;88;22308;-82
2023/03/10 11:35:31;;;;;;;7.83;2.77;;;;;;;17.17;53.90;98722.67;1480080;88;21702;-84
2023/03/10 11:38:36;;;;;;;6.20;2.72;;;;;;;17.34;54.61;98720.40;1475369;88;21478;-84
2023/03/10 11:41:22;;;;;;;4.47;2.35;;;;;;;17.34;53.77;98715.58;1476665;88;21552;-84
2023/03/10 11:44:00;;;;;;;6.17;3.50;;;;;;;17.31;54.36;98698.14;1470974;88;21626;-85
2023/03/10 11:46:38;;;;;;;6.45;2.90;;;;;;;17.50;54.64;98697.50;1510335;86;21515;-82
2023/03/10 11:49:14;;;;;;;4.08;3.02;;;;;;;17.73;53.43;98687.28;1481279;88;21486;-84